createdAt,value
2023-03-26T00:01:21.568Z,49.35
2023-03-26T00:03:53.732Z,49.45
2023-03-26T00:06:25.975Z,50.03
2023-03-26T00:08:53.728Z,49.64
2023-03-26T00:11:23.372Z,49.60
2023-03-26T00:13:50.518Z,49.85
2023-03-26T00:16:20.097Z,49.89
2023-03-26T00:18:49.098Z,49.68
2023-03-26T00:21:28.119Z,49.75
2023-03-26T00:24:00.216Z,49.53
2023-03-26T00:26:29.696Z,49.41
2023-03-26T00:28:57.835Z,49.76
2023-03-26T00:31:24.994Z,49.62
2023-03-26T00:33:55.982Z,49.44
2023-03-26T00:36:26.819Z,50.00
2023-03-26T00:38:54.295Z,50.04
2023-03-26T00:41:31.237Z,50.23
2023-03-26T00:43:59.829Z,50.49
2023-03-26T00:46:28.518Z,50.57
2023-03-26T00:48:59.022Z,50.63
2023-03-26T00:51:27.214Z,50.79
2023-03-26T00:53:54.108Z,50.42
2023-03-26T00:56:20.908Z,50.80
2023-03-26T00:58:50.275Z,50.63
2023-03-26T01:01:27.531Z,50.58
2023-03-26T01:04:08.809Z,50.91
2023-03-26T01:06:39.001Z,51.01
2023-03-26T01:09:14.808Z,50.86
2023-03-26T01:11:42.068Z,51.29
2023-03-26T01:14:14.667Z,51.64
2023-03-26T01:16:46.850Z,51.78
2023-03-26T01:19:53.290Z,51.54
2023-03-26T01:22:23.164Z,51.95
2023-03-26T01:24:54.174Z,52.17
2023-03-26T01:27:32.121Z,52.67
2023-03-26T01:30:26.931Z,52.59
2023-03-26T01:33:00.806Z,52.18
2023-03-26T01:35:52.164Z,52.04
2023-03-26T01:38:28.859Z,51.86
2023-03-26T01:41:21.006Z,51.55
2023-03-26T01:44:09.087Z,51.29
2023-03-26T01:46:36.486Z,51.78
2023-03-26T01:49:06.273Z,51.92
2023-03-26T01:51:35.534Z,52.01
2023-03-26T01:54:05.887Z,52.20
2023-03-26T01:56:54.992Z,52.79
2023-03-26T01:59:46.334Z,52.49
2023-03-26T02:02:21.870Z,52.46
2023-03-26T02:04:57.928Z,52.85
2023-03-26T02:07:39.652Z,52.65
2023-03-26T02:10:18.252Z,52.55
2023-03-26T02:12:45.426Z,52.27
2023-03-26T02:15:12.787Z,52.52
2023-03-26T02:17:40.560Z,52.67
2023-03-26T02:20:14.516Z,52.67
2023-03-26T02:22:45.971Z,52.59
2023-03-26T02:25:16.665Z,52.52
2023-03-26T02:27:44.606Z,52.32
2023-03-26T02:30:16.328Z,52.29
2023-03-26T02:32:44.300Z,52.34
2023-03-26T02:35:12.663Z,52.08
2023-03-26T02:37:40.117Z,52.19
2023-03-26T02:40:14.170Z,51.97
2023-03-26T02:42:42.355Z,51.88
2023-03-26T02:45:09.469Z,51.53
2023-03-26T02:48:01.101Z,51.81
2023-03-26T02:50:54.699Z,52.01
2023-03-26T02:53:41.457Z,52.15
2023-03-26T02:56:28.686Z,52.22
2023-03-26T02:59:21.695Z,52.00
2023-03-26T03:01:56.261Z,52.44
2023-03-26T03:04:23.473Z,52.35
2023-03-26T03:06:53.179Z,52.05
2023-03-26T03:09:20.512Z,52.12
2023-03-26T03:12:06.238Z,52.26
2023-03-26T03:14:33.209Z,52.16
2023-03-26T03:16:59.924Z,52.49
2023-03-26T03:19:27.143Z,52.35
2023-03-26T03:21:54.519Z,52.37
2023-03-26T03:24:21.154Z,52.55
2023-03-26T03:26:48.207Z,52.64
2023-03-26T03:29:30.924Z,52.73
2023-03-26T03:32:01.570Z,52.64
2023-03-26T03:34:38.688Z,52.71
2023-03-26T03:37:05.985Z,52.78
2023-03-26T03:39:40.628Z,52.75
2023-03-26T03:42:07.826Z,52.70
2023-03-26T03:44:34.581Z,52.86
2023-03-26T03:47:01.666Z,52.94
2023-03-26T03:49:28.357Z,53.32
2023-03-26T03:51:57.235Z,53.59
2023-03-26T03:54:32.268Z,53.62
2023-03-26T03:57:18.963Z,53.59
2023-03-26T03:59:59.630Z,53.79
2023-03-26T04:02:34.956Z,53.50
2023-03-26T04:05:04.469Z,53.41
2023-03-26T04:07:32.326Z,53.32
2023-03-26T04:10:07.054Z,53.33
2023-03-26T04:12:56.187Z,53.40
2023-03-26T04:15:46.108Z,53.61
2023-03-26T04:18:12.904Z,54.15
2023-03-26T04:20:46.980Z,54.16
2023-03-26T04:23:19.596Z,54.24
2023-03-26T04:25:54.196Z,54.23
2023-03-26T04:28:43.698Z,54.16
2023-03-26T04:31:24.458Z,54.11
2023-03-26T04:34:00.123Z,54.09
2023-03-26T04:36:32.110Z,54.22
2023-03-26T04:39:03.390Z,54.25
2023-03-26T04:41:50.065Z,54.42
2023-03-26T04:44:22.489Z,54.39
2023-03-26T04:47:00.510Z,54.46
2023-03-26T04:49:35.773Z,54.66
2023-03-26T04:52:02.742Z,54.65
2023-03-26T04:54:48.267Z,54.86
2023-03-26T04:57:38.876Z,54.80
2023-03-26T05:00:16.433Z,55.10
2023-03-26T05:02:49.881Z,55.01
2023-03-26T05:05:17.901Z,55.16
2023-03-26T05:07:45.944Z,55.17
2023-03-26T05:10:15.668Z,55.16
2023-03-26T05:12:52.167Z,55.42
2023-03-26T05:15:23.595Z,55.38
2023-03-26T05:18:04.269Z,55.49
2023-03-26T05:20:36.066Z,55.48
2023-03-26T05:23:04.053Z,55.62
2023-03-26T05:25:35.099Z,55.74
2023-03-26T05:28:02.942Z,55.78
2023-03-26T05:30:43.597Z,55.76
2023-03-26T05:33:10.755Z,55.85
2023-03-26T05:35:43.752Z,55.78
2023-03-26T05:38:10.996Z,55.83
2023-03-26T05:40:38.065Z,55.76
2023-03-26T05:43:06.237Z,55.74
2023-03-26T05:45:35.678Z,55.57
2023-03-26T05:48:13.251Z,55.48
2023-03-26T05:50:40.022Z,55.14
2023-03-26T05:53:07.123Z,54.97
2023-03-26T05:56:02.205Z,54.70
2023-03-26T05:59:08.149Z,54.59
2023-03-26T06:02:01.287Z,54.22
2023-03-26T06:04:34.201Z,53.66
2023-03-26T06:07:19.932Z,53.50
2023-03-26T06:10:02.924Z,53.24
2023-03-26T06:12:30.568Z,52.86
2023-03-26T06:14:57.277Z,52.95
2023-03-26T06:17:37.292Z,52.75
2023-03-26T06:20:13.660Z,52.57
2023-03-26T06:22:43.689Z,52.11
2023-03-26T06:25:21.999Z,52.16
2023-03-26T06:28:04.698Z,52.20
2023-03-26T06:30:40.627Z,52.08
2023-03-26T06:33:36.491Z,52.26
2023-03-26T06:36:04.219Z,52.39
2023-03-26T06:38:31.246Z,52.31
2023-03-26T06:41:04.930Z,52.23
2023-03-26T06:43:43.865Z,51.90
2023-03-26T06:46:11.211Z,51.58
2023-03-26T06:48:39.145Z,51.31
2023-03-26T06:51:25.069Z,51.66
2023-03-26T06:54:17.903Z,51.31
2023-03-26T06:56:49.855Z,50.97
2023-03-26T06:59:28.800Z,50.83
2023-03-26T07:02:13.960Z,50.65
2023-03-26T07:04:59.482Z,50.85
2023-03-26T07:07:46.345Z,50.98
2023-03-26T07:10:36.546Z,51.44
2023-03-26T07:13:21.991Z,51.27
2023-03-26T07:16:21.915Z,51.25
2023-03-26T07:18:59.356Z,50.91
2023-03-26T07:21:30.799Z,50.58
2023-03-26T07:23:58.172Z,50.27
2023-03-26T07:27:22.677Z,50.28
2023-03-26T07:29:59.694Z,50.58
2023-03-26T07:33:03.662Z,50.04
2023-03-26T07:36:04.530Z,49.29
2023-03-26T07:39:09.115Z,48.90
2023-03-26T07:42:20.311Z,48.75
2023-03-26T07:45:25.474Z,48.29
2023-03-26T07:48:21.193Z,48.24
2023-03-26T07:51:18.828Z,48.28
2023-03-26T07:54:10.760Z,48.61
2023-03-26T07:56:55.068Z,48.62
2023-03-26T07:59:44.723Z,48.85
2023-03-26T08:02:49.593Z,48.92
2023-03-26T08:05:55.575Z,49.21
2023-03-26T08:08:58.328Z,49.29
2023-03-26T08:12:31.511Z,49.61
2023-03-26T08:15:01.156Z,49.61
2023-03-26T08:17:39.490Z,49.04
2023-03-26T08:20:31.053Z,49.14
2023-03-26T08:23:07.227Z,49.17
2023-03-26T08:25:53.366Z,49.00
2023-03-26T08:28:31.114Z,49.40
2023-03-26T08:30:58.288Z,49.21
2023-03-26T08:33:27.624Z,49.55
2023-03-26T08:35:54.297Z,49.41
2023-03-26T08:38:22.101Z,49.58
2023-03-26T08:41:07.170Z,49.73
2023-03-26T08:44:03.255Z,50.02
2023-03-26T08:46:46.625Z,50.38
2023-03-26T08:49:31.929Z,50.33
2023-03-26T08:52:35.552Z,49.78
2023-03-26T08:55:20.689Z,49.22
2023-03-26T08:58:18.506Z,48.66
2023-03-26T09:01:03.886Z,48.36
2023-03-26T09:03:53.104Z,48.10
2023-03-26T09:06:29.118Z,47.85
2023-03-26T09:09:42.378Z,47.33
2023-03-26T09:12:28.224Z,46.97
2023-03-26T09:15:26.601Z,46.93
2023-03-26T09:18:15.426Z,46.25
2023-03-26T09:21:25.672Z,46.14
2023-03-26T09:24:10.220Z,46.40
2023-03-26T09:26:58.633Z,46.44
2023-03-26T09:29:56.143Z,46.14
2023-03-26T09:32:40.674Z,46.12
2023-03-26T09:35:31.854Z,45.89
2023-03-26T09:38:18.589Z,46.18
2023-03-26T09:40:58.432Z,46.03
2023-03-26T09:43:57.083Z,45.86
2023-03-26T09:46:46.702Z,45.70
2023-03-26T09:49:38.733Z,45.49
2023-03-26T09:52:24.195Z,45.65
2023-03-26T09:55:16.984Z,45.67
2023-03-26T09:58:19.130Z,45.66
2023-03-26T10:01:06.901Z,45.95
2023-03-26T10:04:01.142Z,46.25
2023-03-26T10:06:42.725Z,46.19
2023-03-26T10:09:28.681Z,46.59
2023-03-26T10:12:07.618Z,46.81
2023-03-26T10:15:04.236Z,46.73
2023-03-26T10:17:31.998Z,46.83
2023-03-26T10:20:17.825Z,47.19
2023-03-26T10:23:00.537Z,47.11
2023-03-26T10:25:46.529Z,47.27
2023-03-26T10:28:34.408Z,47.54
2023-03-26T10:31:22.886Z,47.53
2023-03-26T10:33:59.215Z,47.37
2023-03-26T10:37:03.970Z,47.50
2023-03-26T10:39:49.598Z,47.49
2023-03-26T10:42:31.328Z,47.78
2023-03-26T10:45:07.835Z,47.88
2023-03-26T10:48:12.537Z,48.07
2023-03-26T10:50:57.899Z,47.92
2023-03-26T10:53:43.588Z,48.21
2023-03-26T10:56:27.682Z,47.89
2023-03-26T10:58:57.048Z,47.84
2023-03-26T11:01:28.332Z,47.66
2023-03-26T11:03:57.698Z,47.33
2023-03-26T11:06:27.623Z,47.03
2023-03-26T11:09:35.754Z,46.77
2023-03-26T11:12:26.494Z,45.61
2023-03-26T11:15:38.690Z,45.16
2023-03-26T11:18:13.725Z,44.81
2023-03-26T11:21:18.820Z,43.95
2023-03-26T11:24:05.201Z,43.73
2023-03-26T11:26:42.637Z,43.04
2023-03-26T11:29:33.252Z,42.90
2023-03-26T11:32:15.736Z,42.81
2023-03-26T11:35:00.490Z,42.86
2023-03-26T11:37:42.203Z,43.10
2023-03-26T11:40:25.652Z,43.06
2023-03-26T11:43:00.468Z,43.02
2023-03-26T11:45:31.104Z,42.65
2023-03-26T11:48:30.558Z,42.68
2023-03-26T11:51:14.933Z,42.38
2023-03-26T11:53:47.056Z,41.75
2023-03-26T11:56:32.804Z,41.62
2023-03-26T11:59:16.113Z,41.59
2023-03-26T12:01:58.159Z,41.25
2023-03-26T12:04:35.674Z,41.43
2023-03-26T12:07:34.652Z,41.40
2023-03-26T12:10:20.464Z,41.43
2023-03-26T12:12:48.759Z,41.68
2023-03-26T12:15:19.139Z,41.54
2023-03-26T12:17:55.987Z,41.55
2023-03-26T12:20:25.850Z,41.71
2023-03-26T12:22:59.187Z,41.67
2023-03-26T12:25:31.695Z,41.79
2023-03-26T12:28:13.822Z,42.27
2023-03-26T12:30:45.082Z,42.17
2023-03-26T12:33:39.079Z,42.15
2023-03-26T12:36:24.757Z,42.28
2023-03-26T12:40:07.641Z,42.47
2023-03-26T12:44:44.187Z,42.39
2023-03-26T12:44:58.840Z,42.42
2023-03-26T12:47:59.882Z,42.57
2023-03-26T12:50:34.668Z,42.85
2023-03-26T12:53:21.039Z,43.32
2023-03-26T12:56:01.539Z,43.29
2023-03-26T12:58:57.534Z,43.21
2023-03-26T13:01:53.035Z,43.42
2023-03-26T13:05:05.534Z,43.95
2023-03-26T13:07:39.959Z,44.29
2023-03-26T13:10:26.961Z,44.32
2023-03-26T13:13:44.286Z,44.43
2023-03-26T13:16:39.001Z,44.88
2023-03-26T13:19:18.195Z,45.23
2023-03-26T13:21:56.930Z,44.98
2023-03-26T13:24:32.217Z,45.27
2023-03-26T13:27:25.360Z,45.48
2023-03-26T13:30:38.285Z,45.58
2023-03-26T13:33:23.997Z,45.47
2023-03-26T13:36:23.826Z,45.57
2023-03-26T13:39:05.041Z,45.81
2023-03-26T13:41:37.857Z,46.23
2023-03-26T13:44:20.876Z,46.21
2023-03-26T13:46:53.319Z,46.49
2023-03-26T13:50:01.017Z,46.76
2023-03-26T13:52:41.911Z,46.86
2023-03-26T13:55:37.439Z,46.90
2023-03-26T13:58:41.848Z,47.03
2023-03-26T14:01:34.036Z,47.07
2023-03-26T14:04:21.623Z,47.12
2023-03-26T14:07:01.212Z,47.47
2023-03-26T14:09:40.888Z,47.35
2023-03-26T14:12:29.529Z,47.82
2023-03-26T14:15:04.798Z,48.51
2023-03-26T14:17:42.549Z,48.93
2023-03-26T14:20:40.042Z,49.30
2023-03-26T14:23:32.996Z,49.10
2023-03-26T14:26:11.967Z,49.49
2023-03-26T14:29:00.959Z,50.24
2023-03-26T14:31:34.288Z,50.27
2023-03-26T14:34:34.391Z,50.93
2023-03-26T14:37:10.615Z,51.07
2023-03-26T14:39:59.083Z,51.17
2023-03-26T14:42:56.393Z,52.13
2023-03-26T14:45:41.943Z,53.04
2023-03-26T14:48:11.384Z,53.63
2023-03-26T14:50:54.586Z,53.90
2023-03-26T14:53:38.190Z,54.75
2023-03-26T14:56:27.165Z,55.28
2023-03-26T14:59:17.742Z,57.00
2023-03-26T15:01:56.928Z,56.64
2023-03-26T15:04:47.267Z,57.17
2023-03-26T15:07:30.395Z,57.94
2023-03-26T15:10:13.447Z,58.65
2023-03-26T15:12:48.701Z,58.39
2023-03-26T15:15:42.260Z,59.83
2023-03-26T15:18:08.996Z,60.67
2023-03-26T15:20:57.765Z,60.29
2023-03-26T15:24:00.636Z,61.15
2023-03-26T15:26:48.615Z,62.06
2023-03-26T15:30:15.244Z,62.57
2023-03-26T15:32:57.293Z,63.74
2023-03-26T15:35:49.241Z,63.52
2023-03-26T15:38:48.850Z,64.23
2023-03-26T15:41:30.614Z,64.80
2023-03-26T15:44:23.422Z,65.38
2023-03-26T15:47:28.616Z,65.52
2023-03-26T15:50:18.061Z,66.36
2023-03-26T15:53:18.716Z,66.62
2023-03-26T15:56:07.489Z,67.11
2023-03-26T15:58:55.449Z,67.57
2023-03-26T16:01:34.612Z,67.87
2023-03-26T16:04:26.652Z,68.08
2023-03-26T16:07:05.799Z,68.49
2023-03-26T16:09:56.090Z,68.80
2023-03-26T16:12:32.814Z,68.91
2023-03-26T16:15:25.440Z,68.91
2023-03-26T16:18:11.893Z,69.05
2023-03-26T16:21:09.094Z,68.99
2023-03-26T16:24:02.525Z,68.82
2023-03-26T16:26:47.752Z,68.59
2023-03-26T16:29:14.536Z,68.67
2023-03-26T16:32:09.197Z,68.60
2023-03-26T16:35:00.372Z,68.68
2023-03-26T16:37:36.587Z,68.65
2023-03-26T16:40:36.335Z,68.60
2023-03-26T16:43:06.815Z,68.68
2023-03-26T16:45:45.384Z,68.69
2023-03-26T16:48:21.170Z,69.03
2023-03-26T16:51:03.901Z,69.26
2023-03-26T16:54:09.833Z,69.23
2023-03-26T16:56:53.198Z,68.66
2023-03-26T16:59:44.507Z,68.40
2023-03-26T17:02:31.401Z,68.30
2023-03-26T17:05:40.374Z,67.95
2023-03-26T17:08:35.619Z,67.72
2023-03-26T17:11:08.817Z,67.08
2023-03-26T17:14:03.702Z,67.90
2023-03-26T17:16:33.266Z,68.19
2023-03-26T17:19:38.028Z,67.96
2023-03-26T17:22:14.029Z,68.29
2023-03-26T17:25:01.698Z,68.27
2023-03-26T17:28:07.304Z,68.02
2023-03-26T17:30:58.392Z,68.03
2023-03-26T17:33:35.021Z,68.22
2023-03-26T17:36:21.434Z,68.08
2023-03-26T17:38:48.124Z,68.35
2023-03-26T17:42:01.023Z,67.86
2023-03-26T17:44:42.162Z,68.13
2023-03-26T17:47:22.400Z,68.24
2023-03-26T17:49:53.920Z,68.02
2023-03-26T17:52:40.973Z,68.39
2023-03-26T17:55:15.844Z,68.41
2023-03-26T17:57:50.502Z,68.35
2023-03-26T18:00:42.280Z,67.93
2023-03-26T18:03:33.151Z,68.22
2023-03-26T18:06:29.333Z,68.41
2023-03-26T18:09:02.423Z,68.65
2023-03-26T18:11:52.660Z,68.63
2023-03-26T18:14:41.181Z,68.42
2023-03-26T18:17:07.982Z,68.47
2023-03-26T18:19:54.878Z,68.54
2023-03-26T18:22:30.597Z,68.29
2023-03-26T18:25:01.432Z,68.41
2023-03-26T18:27:40.437Z,68.29
2023-03-26T18:30:23.492Z,68.32
2023-03-26T18:33:13.654Z,68.64
2023-03-26T18:35:46.562Z,69.40
2023-03-26T18:38:35.943Z,69.48
2023-03-26T18:41:08.172Z,69.15
2023-03-26T18:43:44.173Z,69.32
2023-03-26T18:46:14.940Z,69.66
2023-03-26T18:48:42.676Z,69.96
2023-03-26T18:51:10.780Z,70.10
2023-03-26T18:53:41.321Z,70.02
2023-03-26T18:56:31.892Z,70.02
2023-03-26T18:59:00.601Z,69.93
2023-03-26T19:01:30.793Z,69.59
2023-03-26T19:04:02.220Z,69.50
2023-03-26T19:06:29.820Z,69.10
2023-03-26T19:08:57.707Z,68.83
2023-03-26T19:11:26.298Z,68.92
2023-03-26T19:14:20.106Z,69.19
2023-03-26T19:16:56.366Z,69.09
2023-03-26T19:19:29.357Z,69.55
2023-03-26T19:21:59.066Z,69.32
2023-03-26T19:24:27.546Z,69.30
2023-03-26T19:26:54.546Z,69.38
2023-03-26T19:29:28.764Z,69.29
2023-03-26T19:32:07.168Z,69.19
2023-03-26T19:34:39.191Z,69.07
2023-03-26T19:37:21.960Z,69.30
2023-03-26T19:39:54.398Z,69.40
2023-03-26T19:42:24.108Z,69.57
2023-03-26T19:44:51.962Z,69.24
2023-03-26T19:47:29.268Z,69.57
2023-03-26T19:50:26.100Z,69.71
2023-03-26T19:53:28.753Z,70.17
2023-03-26T19:56:11.889Z,70.59
2023-03-26T19:58:40.372Z,70.96
2023-03-26T20:01:30.461Z,70.84
2023-03-26T20:04:01.558Z,70.99
2023-03-26T20:06:41.727Z,70.85
2023-03-26T20:09:11.042Z,71.66
2023-03-26T20:11:39.875Z,72.06
2023-03-26T20:14:26.708Z,71.95
2023-03-26T20:16:53.887Z,71.88
2023-03-26T20:19:20.765Z,71.71
2023-03-26T20:21:47.475Z,71.60
2023-03-26T20:24:16.865Z,71.66
2023-03-26T20:26:45.155Z,71.47
2023-03-26T20:29:13.062Z,71.47
2023-03-26T20:31:41.962Z,71.02
2023-03-26T20:34:17.821Z,70.99
2023-03-26T20:36:45.834Z,70.96
2023-03-26T20:39:13.446Z,71.16
2023-03-26T20:41:46.652Z,71.12
2023-03-26T20:44:16.152Z,70.88
2023-03-26T20:46:44.416Z,70.74
2023-03-26T20:49:12.523Z,70.57
2023-03-26T20:51:39.446Z,70.98
2023-03-26T20:54:09.132Z,70.96
2023-03-26T20:56:37.776Z,71.16
2023-03-26T20:59:11.043Z,71.07
2023-03-26T21:01:38.756Z,70.94
2023-03-26T21:04:06.746Z,71.01
2023-03-26T21:06:33.524Z,70.79
2023-03-26T21:09:00.799Z,70.87
2023-03-26T21:11:39.906Z,70.73
2023-03-26T21:14:12.740Z,70.63
2023-03-26T21:16:39.871Z,70.76
2023-03-26T21:19:06.955Z,71.33
2023-03-26T21:22:07.570Z,70.93
2023-03-26T21:24:49.580Z,70.91
2023-03-26T21:27:31.427Z,71.24
2023-03-26T21:30:00.158Z,70.83
2023-03-26T21:32:27.376Z,70.58
2023-03-26T21:37:24.320Z,70.12
2023-03-26T21:39:51.587Z,70.74
2023-03-26T21:42:18.609Z,70.40
2023-03-26T21:44:45.629Z,70.51
2023-03-26T21:47:12.874Z,70.73
2023-03-26T21:49:39.857Z,70.61
2023-03-26T21:52:06.950Z,70.39
2023-03-26T21:54:33.959Z,70.14
2023-03-26T21:57:18.781Z,70.06
2023-03-26T21:59:58.991Z,70.27
2023-03-26T22:03:03.479Z,69.83
2023-03-26T22:05:54.509Z,69.91
2023-03-26T22:08:38.946Z,69.94
2023-03-26T22:11:07.252Z,69.82
2023-03-26T22:13:38.321Z,69.58
2023-03-26T22:16:07.431Z,70.18
2023-03-26T22:18:34.560Z,70.07
2023-03-26T22:21:01.754Z,70.71
2023-03-26T22:23:36.611Z,70.50
2023-03-26T22:26:04.615Z,70.60
2023-03-26T22:28:32.105Z,70.84
2023-03-26T22:30:59.148Z,70.68
2023-03-26T22:33:26.826Z,70.15
2023-03-26T22:35:55.914Z,70.91
2023-03-26T22:38:23.045Z,70.61
2023-03-26T22:40:57.922Z,70.46
2023-03-26T22:43:24.785Z,70.45
2023-03-26T22:45:53.784Z,70.72
2023-03-26T22:48:22.472Z,70.52
2023-03-26T22:50:58.516Z,70.13
2023-03-26T22:53:25.676Z,69.87
2023-03-26T22:55:52.292Z,69.74
2023-03-26T22:58:19.038Z,69.85
2023-03-26T23:00:46.504Z,69.45
2023-03-26T23:03:15.419Z,69.89
2023-03-26T23:05:42.727Z,69.41
2023-03-26T23:08:09.710Z,69.81
2023-03-26T23:10:36.934Z,69.60
2023-03-26T23:13:03.709Z,69.79
2023-03-26T23:15:30.606Z,69.48
2023-03-26T23:17:58.400Z,69.54
2023-03-26T23:20:25.450Z,69.38
2023-03-26T23:22:52.658Z,69.40
2023-03-26T23:25:19.975Z,69.15
2023-03-26T23:27:48.478Z,69.02
2023-03-26T23:30:16.744Z,68.80
2023-03-26T23:32:44.133Z,68.73
2023-03-26T23:35:11.310Z,68.93
2023-03-26T23:37:38.042Z,69.32
2023-03-26T23:40:10.272Z,69.37
2023-03-26T23:42:37.664Z,69.23
2023-03-26T23:45:05.680Z,69.16
2023-03-26T23:47:34.986Z,69.28
2023-03-26T23:50:02.747Z,68.97
2023-03-26T23:52:30.268Z,68.79
2023-03-26T23:54:59.906Z,68.85
2023-03-26T23:57:27.292Z,68.56
2023-03-26T23:59:54.769Z,68.60
